createdAt,value
2018-01-31T01:53:50.059Z,17.17
2018-01-31T01:56:16.208Z,16.07
2018-01-31T01:58:42.455Z,12.80
2018-01-31T02:01:08.678Z,13.47
2018-01-31T02:03:35.638Z,17.40
2018-01-31T02:06:01.791Z,22.70
2018-01-31T02:08:27.961Z,10.27
2018-01-31T02:10:54.142Z,12.93
2018-01-31T02:13:20.309Z,15.63
2018-01-31T02:15:46.552Z,17.90
2018-01-31T02:18:13.471Z,18.77
2018-01-31T02:20:39.695Z,16.53
2018-01-31T02:23:05.941Z,22.27
2018-01-31T02:25:32.843Z,24.23
2018-01-31T02:27:58.982Z,13.93
2018-01-31T02:30:25.486Z,18.87
2018-01-31T02:32:52.003Z,14.43
2018-01-31T02:35:19.114Z,17.90
2018-01-31T02:37:45.310Z,18.97
2018-01-31T02:40:11.467Z,18.93
2018-01-31T02:42:37.658Z,19.63
2018-01-31T02:45:03.887Z,14.17
2018-01-31T02:47:30.139Z,17.17
2018-01-31T02:49:56.298Z,17.70
2018-01-31T02:52:23.223Z,21.87
2018-01-31T02:54:50.165Z,17.13
2018-01-31T02:57:16.331Z,27.63
2018-01-31T02:59:42.534Z,14.40
2018-01-31T03:02:09.515Z,19.43
2018-01-31T03:04:35.722Z,15.87
2018-01-31T03:07:01.945Z,16.30
2018-01-31T03:09:28.120Z,14.57
2018-01-31T03:11:54.663Z,23.93
2018-01-31T03:14:20.834Z,14.30
2018-01-31T03:16:47.005Z,15.87
2018-01-31T03:19:13.222Z,20.40
2018-01-31T03:21:39.407Z,21.23
2018-01-31T03:24:05.627Z,18.40
2018-01-31T03:26:32.559Z,14.37
2018-01-31T03:28:59.522Z,25.97
2018-01-31T03:31:26.435Z,18.80
2018-01-31T03:33:52.651Z,15.77
2018-01-31T03:36:18.872Z,19.60
2018-01-31T03:38:45.047Z,16.63
2018-01-31T03:41:12.004Z,19.27
2018-01-31T03:43:38.168Z,31.77
2018-01-31T03:46:04.346Z,17.37
2018-01-31T03:48:30.538Z,22.10
2018-01-31T03:50:56.704Z,14.07
2018-01-31T03:53:22.889Z,18.67
2018-01-31T03:55:49.069Z,21.20
2018-01-31T03:58:15.246Z,17.43
2018-01-31T04:00:41.436Z,28.30
2018-01-31T04:03:07.599Z,16.33
2018-01-31T04:05:33.970Z,14.53
2018-01-31T04:08:00.349Z,14.43
2018-01-31T04:10:26.549Z,21.60
2018-01-31T04:12:52.688Z,14.60
2018-01-31T04:15:19.048Z,14.80
2018-01-31T04:17:45.951Z,19.80
2018-01-31T04:20:12.112Z,19.27
2018-01-31T04:22:38.309Z,13.73
2018-01-31T04:25:04.470Z,15.77
2018-01-31T04:27:30.656Z,15.03
2018-01-31T04:29:56.802Z,16.77
2018-01-31T04:32:23.055Z,18.60
2018-01-31T04:34:49.988Z,16.20
2018-01-31T04:37:16.153Z,17.33
2018-01-31T04:39:42.325Z,16.50
2018-01-31T04:42:08.487Z,22.07
2018-01-31T04:44:35.431Z,19.93
2018-01-31T04:47:01.644Z,21.70
2018-01-31T04:49:28.773Z,21.53
2018-01-31T04:51:55.277Z,21.30
2018-01-31T04:54:21.430Z,19.00
2018-01-31T04:56:47.620Z,15.47
2018-01-31T04:59:13.799Z,14.03
2018-01-31T05:01:40.254Z,18.67
2018-01-31T05:04:06.470Z,18.10
2018-01-31T05:06:33.393Z,26.63
2018-01-31T05:08:59.583Z,17.10
2018-01-31T05:11:25.753Z,17.83
2018-01-31T05:13:51.927Z,19.70
2018-01-31T05:16:18.602Z,20.30
2018-01-31T05:18:44.778Z,20.63
2018-01-31T05:21:10.988Z,17.97
2018-01-31T05:23:37.188Z,15.50
2018-01-31T05:26:03.390Z,12.70
2018-01-31T05:28:29.534Z,15.90
2018-01-31T05:30:55.711Z,25.93
2018-01-31T05:33:21.947Z,16.23
2018-01-31T05:35:48.101Z,14.60
2018-01-31T05:38:14.523Z,22.60
2018-01-31T05:40:40.701Z,14.93
2018-01-31T05:43:08.478Z,16.93
2018-01-31T05:45:34.635Z,19.43
2018-01-31T05:48:00.959Z,23.17
2018-01-31T05:50:27.317Z,14.93
2018-01-31T05:52:53.689Z,15.93
2018-01-31T05:55:19.871Z,23.03
2018-01-31T05:57:46.224Z,17.20
2018-01-31T06:00:12.654Z,13.57
2018-01-31T06:02:38.891Z,18.83
2018-01-31T06:05:05.835Z,16.37
2018-01-31T06:07:32.007Z,24.03
2018-01-31T06:09:58.231Z,17.80
2018-01-31T06:12:25.195Z,18.40
2018-01-31T06:14:51.355Z,24.13
2018-01-31T06:17:17.577Z,16.83
2018-01-31T06:19:43.746Z,16.37
2018-01-31T06:22:10.039Z,16.63
2018-01-31T06:24:36.461Z,14.03
2018-01-31T06:27:02.731Z,24.37
2018-01-31T06:29:28.909Z,13.80
2018-01-31T06:31:56.549Z,19.13
2018-01-31T06:34:23.017Z,17.80
2018-01-31T06:36:49.934Z,17.47
2018-01-31T06:39:16.120Z,27.07
2018-01-31T06:41:42.338Z,16.37
2018-01-31T06:44:08.522Z,25.47
2018-01-31T06:46:34.855Z,18.03
2018-01-31T06:49:01.768Z,20.27
2018-01-31T06:51:27.956Z,18.17
2018-01-31T06:53:54.147Z,23.53
2018-01-31T06:56:20.332Z,17.03
2018-01-31T06:58:46.503Z,19.73
2018-01-31T07:01:12.691Z,22.07
2018-01-31T07:03:38.950Z,21.80
2018-01-31T07:06:05.313Z,23.00
2018-01-31T07:08:31.592Z,22.47
2018-01-31T07:10:57.763Z,21.03
2018-01-31T07:13:24.681Z,23.73
2018-01-31T07:15:50.943Z,23.83
2018-01-31T07:18:17.880Z,16.13
2018-01-31T07:20:44.921Z,27.30
2018-01-31T07:23:11.848Z,17.37
2018-01-31T07:25:38.010Z,22.23
2018-01-31T07:28:04.978Z,20.33
2018-01-31T07:30:31.176Z,17.20
2018-01-31T07:32:58.090Z,17.57
2018-01-31T07:35:25.111Z,18.50
2018-01-31T07:37:51.471Z,17.67
2018-01-31T07:40:17.633Z,33.50
2018-01-31T07:42:43.838Z,26.10
2018-01-31T07:45:10.850Z,25.67
2018-01-31T07:47:37.277Z,20.17
2018-01-31T07:50:03.519Z,25.93
2018-01-31T07:52:29.745Z,25.00
2018-01-31T07:54:55.946Z,21.23
2018-01-31T07:57:22.106Z,19.70
2018-01-31T07:59:48.306Z,20.33
2018-01-31T08:02:14.492Z,22.00
2018-01-31T08:04:41.487Z,20.23
2018-01-31T08:07:07.780Z,24.80
2018-01-31T08:09:37.328Z,17.60
2018-01-31T08:12:03.531Z,22.10
2018-01-31T08:14:29.874Z,27.13
2018-01-31T08:16:56.363Z,19.33
2018-01-31T08:19:23.255Z,22.50
2018-01-31T08:21:49.405Z,22.07
2018-01-31T08:24:15.672Z,21.13
2018-01-31T08:26:42.020Z,24.00
2018-01-31T08:29:08.305Z,22.77
2018-01-31T08:31:34.771Z,23.90
2018-01-31T08:34:00.984Z,24.67
2018-01-31T08:36:27.164Z,24.10
2018-01-31T08:38:53.385Z,26.73
2018-01-31T08:41:19.500Z,25.23
2018-01-31T08:43:45.904Z,26.83
2018-01-31T08:46:12.132Z,21.97
2018-01-31T08:48:38.376Z,24.60
2018-01-31T08:51:04.591Z,24.30
2018-01-31T08:53:30.888Z,24.17
2018-01-31T08:55:57.184Z,25.10
2018-01-31T08:58:23.677Z,26.37
2018-01-31T09:00:49.878Z,28.17
2018-01-31T09:03:16.806Z,27.20
2018-01-31T09:05:42.977Z,25.13
2018-01-31T09:08:09.162Z,25.57
2018-01-31T09:10:36.130Z,26.53
2018-01-31T09:13:02.336Z,27.83
2018-01-31T09:15:29.252Z,27.80
2018-01-31T09:17:55.433Z,23.40
2018-01-31T09:20:21.595Z,26.20
2018-01-31T09:22:47.755Z,30.80
2018-01-31T09:25:14.694Z,24.93
2018-01-31T09:27:41.611Z,30.80
2018-01-31T09:30:07.866Z,31.13
2018-01-31T09:32:34.192Z,28.13
2018-01-31T09:35:00.684Z,34.90
2018-01-31T09:37:26.896Z,36.73
2018-01-31T09:39:53.170Z,32.73
2018-01-31T09:42:19.489Z,32.63
2018-01-31T09:44:45.764Z,31.20
2018-01-31T09:47:12.698Z,32.07
2018-01-31T09:49:38.967Z,29.00
2018-01-31T09:52:05.148Z,29.23
2018-01-31T09:54:32.131Z,32.17
2018-01-31T09:56:58.297Z,37.93
2018-01-31T09:59:24.434Z,33.43
2018-01-31T10:01:50.703Z,41.60
2018-01-31T10:04:16.939Z,40.60
2018-01-31T10:06:43.187Z,34.47
2018-01-31T10:09:09.398Z,35.93
2018-01-31T10:11:35.618Z,33.70
2018-01-31T10:14:01.822Z,40.30
2018-01-31T10:16:28.011Z,38.90
2018-01-31T10:18:54.218Z,34.87
2018-01-31T10:21:20.401Z,36.60
2018-01-31T10:23:47.334Z,36.60
2018-01-31T10:26:14.344Z,39.27
2018-01-31T10:28:40.579Z,39.60
2018-01-31T10:31:06.851Z,37.30
2018-01-31T10:33:33.129Z,35.57
2018-01-31T10:35:59.395Z,35.70
2018-01-31T10:38:25.699Z,40.10
2018-01-31T10:40:51.958Z,42.53
2018-01-31T10:43:18.329Z,34.23
2018-01-31T10:45:44.539Z,26.40
2018-01-31T10:48:10.728Z,33.70
2018-01-31T10:50:38.536Z,34.80
2018-01-31T10:53:05.132Z,52.33
2018-01-31T10:57:28.637Z,40.00
2018-01-31T10:57:57.602Z,33.90
2018-01-31T11:00:26.731Z,35.13
2018-01-31T11:02:52.922Z,33.30
2018-01-31T11:05:19.924Z,29.43
2018-01-31T11:07:46.139Z,36.30
2018-01-31T11:10:12.332Z,31.70
2018-01-31T11:12:38.506Z,33.53
2018-01-31T11:15:05.442Z,29.20
2018-01-31T11:17:31.682Z,36.50
2018-01-31T11:19:57.865Z,30.10
2018-01-31T11:22:24.088Z,27.33
2018-01-31T11:24:50.349Z,34.57
2018-01-31T11:27:17.309Z,32.50
2018-01-31T11:29:44.236Z,34.50
2018-01-31T11:32:10.439Z,21.40
2018-01-31T11:34:36.744Z,19.40
2018-01-31T11:37:03.708Z,22.60
2018-01-31T11:39:29.905Z,20.80
2018-01-31T11:41:56.918Z,22.90
2018-01-31T11:44:23.863Z,17.63
2018-01-31T11:46:50.078Z,17.43
2018-01-31T11:49:16.242Z,21.50
2018-01-31T11:51:43.208Z,15.50
2018-01-31T11:54:09.539Z,13.03
2018-01-31T11:56:35.776Z,13.10
2018-01-31T11:59:01.997Z,14.67
2018-01-31T12:01:28.262Z,14.73
2018-01-31T12:03:54.470Z,11.47
2018-01-31T12:06:20.652Z,14.23
2018-01-31T12:08:47.583Z,10.20
2018-01-31T12:11:13.767Z,13.17
2018-01-31T12:17:08.397Z,8.50
2018-01-31T12:19:40.903Z,10.80
2018-01-31T12:22:19.944Z,9.17
2018-01-31T12:24:58.636Z,8.80
2018-01-31T12:27:37.141Z,7.37
2018-01-31T12:30:15.841Z,11.93
2018-01-31T12:35:58.386Z,7.70
2018-01-31T12:38:37.245Z,8.17
2018-01-31T12:41:03.433Z,6.57
2018-01-31T12:43:30.296Z,6.90
2018-01-31T12:46:08.836Z,8.10
2018-01-31T12:48:47.428Z,5.60
2018-01-31T12:51:20.601Z,6.00
2018-01-31T12:56:58.040Z,5.33
2018-01-31T12:59:36.819Z,5.30
2018-01-31T13:02:15.578Z,4.70
2018-01-31T13:04:54.198Z,4.60
2018-01-31T13:07:21.404Z,5.03
2018-01-31T13:09:59.963Z,4.57
2018-01-31T13:12:39.982Z,3.70
2018-01-31T13:15:19.951Z,3.33
2018-01-31T13:17:57.503Z,11.73
2018-01-31T13:20:36.253Z,3.93
2018-01-31T13:23:02.551Z,4.10
2018-01-31T13:25:41.172Z,3.77
2018-01-31T13:28:26.273Z,2.97
2018-01-31T13:31:04.889Z,3.40
2018-01-31T13:33:43.529Z,9.13
2018-01-31T13:36:22.365Z,2.80
2018-01-31T13:39:00.974Z,5.37
2018-01-31T13:41:39.766Z,2.83
2018-01-31T13:44:18.524Z,2.57
2018-01-31T13:46:57.228Z,2.50
2018-01-31T13:49:36.364Z,2.77
2018-01-31T13:52:21.148Z,2.97
2018-01-31T13:54:59.771Z,2.13
2018-01-31T13:57:38.507Z,2.50
2018-01-31T14:00:17.022Z,2.10
2018-01-31T14:02:55.706Z,1.90
2018-01-31T14:05:34.379Z,2.13
2018-01-31T14:08:13.087Z,1.80
2018-01-31T14:10:51.701Z,1.67
2018-01-31T14:13:30.291Z,1.97
2018-01-31T14:19:17.486Z,3.27
2018-01-31T14:21:55.937Z,1.20
2018-01-31T14:24:34.620Z,3.13
2018-01-31T14:27:13.266Z,1.60
2018-01-31T14:29:52.183Z,2.13
2018-01-31T14:32:31.633Z,2.60
2018-01-31T14:35:10.791Z,1.83
2018-01-31T14:37:37.029Z,4.60
2018-01-31T14:40:03.153Z,3.40
2018-01-31T14:42:29.328Z,1.70
2018-01-31T14:44:55.421Z,2.70
2018-01-31T14:47:21.535Z,2.70
2018-01-31T14:49:47.632Z,1.37
2018-01-31T14:52:13.721Z,1.73
2018-01-31T14:54:39.766Z,3.97
2018-01-31T14:57:06.568Z,1.40
2018-01-31T14:59:32.693Z,2.83
2018-01-31T15:01:58.811Z,1.40
2018-01-31T15:04:25.040Z,1.20
2018-01-31T15:06:51.996Z,1.00
2018-01-31T15:09:18.121Z,1.73
2018-01-31T15:11:44.269Z,1.53
2018-01-31T15:14:11.150Z,2.20
2018-01-31T15:16:37.273Z,3.43
2018-01-31T15:19:05.209Z,1.60
2018-01-31T15:21:31.279Z,2.70
2018-01-31T15:23:57.554Z,1.03
2018-01-31T15:26:23.646Z,1.23
2018-01-31T15:28:49.728Z,1.53
2018-01-31T15:31:15.829Z,10.50
2018-01-31T15:33:41.920Z,1.00
2018-01-31T15:36:08.099Z,2.40
2018-01-31T15:38:34.208Z,1.50
2018-01-31T15:41:00.409Z,1.33
2018-01-31T15:43:26.627Z,1.30
2018-01-31T15:45:53.512Z,1.00
2018-01-31T15:48:19.682Z,1.17
2018-01-31T15:50:45.961Z,2.80
2018-01-31T15:53:12.050Z,1.13
2018-01-31T15:55:38.906Z,1.27
2018-01-31T15:58:05.159Z,1.30
2018-01-31T16:00:32.026Z,1.30
2018-01-31T16:02:58.207Z,2.20
2018-01-31T16:05:24.318Z,1.47
2018-01-31T16:07:50.482Z,1.17
2018-01-31T16:10:17.272Z,1.00
2018-01-31T16:12:43.427Z,1.23
2018-01-31T16:15:10.265Z,1.33
2018-01-31T16:17:36.537Z,1.30
2018-01-31T16:20:15.909Z,1.00
2018-01-31T16:22:42.172Z,1.30
2018-01-31T16:25:08.556Z,1.23
2018-01-31T16:27:48.981Z,0.80
2018-01-31T16:30:48.136Z,1.00
2018-01-31T16:33:27.627Z,2.20
2018-01-31T16:35:54.153Z,1.00
2018-01-31T16:38:20.493Z,1.43
2018-01-31T16:40:47.493Z,1.27
2018-01-31T16:43:13.932Z,2.27
2018-01-31T16:45:43.586Z,1.03
2018-01-31T16:48:11.134Z,1.30
2018-01-31T16:50:40.662Z,5.13
2018-01-31T16:53:09.810Z,1.33
2018-01-31T16:55:37.439Z,1.30
2018-01-31T16:58:03.941Z,1.00
2018-01-31T17:00:30.236Z,1.53
2018-01-31T17:02:57.434Z,2.00
2018-01-31T17:05:23.741Z,1.13
2018-01-31T17:07:50.097Z,4.20
2018-01-31T17:10:16.637Z,1.47
2018-01-31T17:12:46.341Z,1.27
2018-01-31T17:15:14.029Z,1.10
2018-01-31T17:17:41.263Z,3.03
2018-01-31T17:20:09.283Z,4.07
2018-01-31T17:22:36.745Z,2.30
2018-01-31T17:25:03.036Z,1.50
2018-01-31T17:27:29.294Z,1.03
2018-01-31T17:29:56.263Z,1.10
2018-01-31T17:32:22.556Z,1.60
2018-01-31T17:34:48.928Z,1.87
2018-01-31T17:37:15.167Z,1.40
2018-01-31T17:39:41.575Z,1.43
2018-01-31T17:42:07.942Z,2.20
2018-01-31T17:44:34.207Z,1.50
2018-01-31T17:47:00.582Z,2.17
2018-01-31T17:49:26.866Z,1.83
2018-01-31T17:51:53.165Z,1.73
2018-01-31T17:54:19.425Z,1.20
2018-01-31T17:56:45.725Z,2.03
2018-01-31T17:59:12.744Z,2.13
2018-01-31T18:01:39.208Z,1.70
2018-01-31T18:04:05.504Z,1.37
2018-01-31T18:06:31.789Z,2.23
2018-01-31T18:08:58.427Z,1.93
2018-01-31T18:11:25.606Z,1.87
2018-01-31T18:13:51.908Z,1.60
2018-01-31T18:16:18.189Z,1.80
2018-01-31T18:18:45.141Z,1.67
2018-01-31T18:21:11.591Z,2.57
2018-01-31T18:23:38.665Z,2.20
2018-01-31T18:26:04.991Z,2.80
2018-01-31T18:28:31.557Z,1.90
2018-01-31T18:30:58.024Z,2.27
2018-01-31T18:33:25.519Z,1.63
2018-01-31T18:35:53.364Z,1.77
2018-01-31T18:38:19.688Z,1.77
2018-01-31T18:40:45.968Z,1.80
2018-01-31T18:43:13.190Z,2.37
2018-01-31T18:45:40.246Z,1.80
2018-01-31T18:48:07.292Z,1.93
2018-01-31T18:50:33.906Z,2.03
2018-01-31T18:53:01.207Z,1.90
2018-01-31T18:55:28.668Z,1.80
2018-01-31T18:57:55.135Z,1.87
2018-01-31T19:00:22.058Z,1.67
2018-01-31T19:02:48.976Z,1.93
2018-01-31T19:05:15.748Z,2.00
2018-01-31T19:07:42.367Z,2.00
2018-01-31T19:10:09.099Z,1.87
2018-01-31T19:12:35.405Z,2.23
2018-01-31T19:15:01.960Z,2.40
2018-01-31T19:17:30.445Z,2.10
2018-01-31T19:19:57.843Z,9.27
2018-01-31T19:22:24.306Z,7.43
2018-01-31T19:24:50.686Z,7.63
2018-01-31T19:27:17.825Z,3.60
2018-01-31T19:29:44.446Z,6.80
2018-01-31T19:32:11.677Z,138.02
2018-01-31T19:34:38.433Z,44.80
2018-01-31T19:37:04.993Z,5.80
2018-01-31T19:39:31.308Z,3.23
2018-01-31T19:41:57.726Z,5.60
2018-01-31T19:44:24.996Z,9.60
2018-01-31T19:46:51.468Z,2.03
2018-01-31T19:49:17.858Z,1.63
2018-01-31T19:51:44.176Z,3.20
2018-01-31T19:54:10.559Z,2.63
2018-01-31T19:56:57.025Z,1.30
2018-01-31T19:59:28.373Z,2.53
2018-01-31T20:01:55.581Z,4.73
2018-01-31T20:04:21.828Z,4.90
2018-01-31T20:06:48.444Z,7.23
2018-01-31T20:09:15.728Z,2.03
2018-01-31T20:11:42.186Z,6.23
2018-01-31T20:14:08.601Z,3.53
2018-01-31T20:16:35.190Z,4.87
2018-01-31T20:19:01.610Z,5.43
2018-01-31T20:21:28.077Z,4.63
2018-01-31T20:23:55.044Z,8.50
2018-01-31T20:26:21.862Z,6.20
2018-01-31T20:29:00.657Z,7.63
2018-01-31T20:31:27.057Z,5.30
2018-01-31T20:33:53.527Z,6.30
2018-01-31T20:36:21.422Z,5.53
2018-01-31T20:38:48.630Z,3.23
2018-01-31T20:41:14.981Z,2.20
2018-01-31T20:43:42.315Z,10.33
2018-01-31T20:46:09.130Z,4.23
2018-01-31T20:48:35.953Z,2.20
2018-01-31T20:51:03.039Z,4.47
2018-01-31T20:53:29.365Z,2.63
2018-01-31T20:55:56.920Z,2.53
2018-01-31T20:58:24.037Z,4.37
2018-01-31T21:04:31.776Z,2.47
2018-01-31T21:06:58.863Z,1.60
2018-01-31T21:09:25.196Z,2.60
2018-01-31T21:11:52.621Z,1.70
2018-01-31T21:14:18.902Z,3.37
2018-01-31T21:16:45.297Z,9.27
2018-01-31T21:19:11.790Z,2.40
2018-01-31T21:21:38.223Z,3.20
2018-01-31T21:24:04.481Z,4.10
2018-01-31T21:26:30.774Z,6.30
2018-01-31T21:28:57.116Z,2.77
2018-01-31T21:31:23.444Z,2.13
2018-01-31T21:33:49.961Z,3.80
2018-01-31T21:36:16.337Z,2.43
2018-01-31T21:38:42.607Z,6.13
2018-01-31T21:41:08.821Z,2.10
2018-01-31T21:43:35.058Z,2.13
2018-01-31T21:46:01.333Z,3.37
2018-01-31T21:48:27.632Z,3.87
2018-01-31T21:50:53.952Z,4.33
2018-01-31T21:53:21.144Z,4.03
2018-01-31T21:55:49.052Z,3.80
2018-01-31T21:58:15.340Z,2.67
2018-01-31T22:00:41.620Z,1.93
2018-01-31T22:03:07.931Z,2.60
2018-01-31T22:05:34.260Z,4.30
2018-01-31T22:08:00.569Z,2.50
2018-01-31T22:10:26.883Z,3.93
2018-01-31T22:12:55.388Z,3.50
2018-01-31T22:15:21.642Z,2.60
2018-01-31T22:17:47.849Z,2.43
2018-01-31T22:20:18.282Z,2.40
2018-01-31T22:22:47.666Z,6.87
2018-01-31T22:25:14.117Z,6.63
2018-01-31T22:27:40.312Z,2.07
2018-01-31T22:30:08.654Z,2.43
2018-01-31T22:32:35.064Z,3.20
2018-01-31T22:35:01.279Z,2.23
2018-01-31T22:37:27.512Z,2.47
2018-01-31T22:39:54.512Z,2.37
2018-01-31T22:42:21.663Z,2.20
2018-01-31T22:44:50.397Z,8.50
2018-01-31T22:47:16.643Z,8.63
2018-01-31T22:49:43.195Z,4.73
2018-01-31T22:52:09.542Z,2.10
2018-01-31T22:54:35.841Z,3.73
2018-01-31T22:57:02.074Z,7.03
2018-01-31T22:59:28.841Z,2.47
2018-01-31T23:01:56.160Z,1.40
2018-01-31T23:04:22.358Z,0.80
2018-01-31T23:06:48.717Z,0.83
2018-01-31T23:09:15.292Z,3.27
2018-01-31T23:11:42.804Z,2.20
2018-01-31T23:14:15.065Z,0.70
2018-01-31T23:16:41.298Z,0.80
2018-01-31T23:19:07.550Z,1.67
2018-01-31T23:21:33.844Z,1.50
2018-01-31T23:24:00.197Z,1.27
2018-01-31T23:26:26.446Z,1.10
2018-01-31T23:28:53.565Z,1.37
2018-01-31T23:31:19.784Z,2.00
2018-01-31T23:33:46.066Z,0.90
2018-01-31T23:36:13.040Z,1.00
2018-01-31T23:38:39.465Z,1.53
2018-01-31T23:41:05.826Z,0.80
2018-01-31T23:43:32.068Z,5.27
2018-01-31T23:45:58.334Z,2.80
2018-01-31T23:48:24.523Z,0.93
2018-01-31T23:50:50.788Z,1.10
2018-01-31T23:53:17.843Z,1.00
2018-01-31T23:55:44.515Z,1.07
2018-01-31T23:58:10.808Z,2.90
